Welcome to Northern Hawkes Bay. New Zealand.
PWS Header
      nz Flag



Hit Counter


W3C Valid W3C Valid logo


    Wairoa

Select any of the Stations below to visit their websites.










Historic Data from Weather Underground
Select the location of interest below. Wairoa is the default. Please have patience, this Data is slow to load in.
Northern Hawkes Bay Historical Data
Daily Summary for August 3, 2017 Units:  Metric    English   Both
« Previous Day
Next Day »
Daily Weekly Monthly Yearly Custom
  High: Low: Average:
Temperature: 12.2 °C 6.7 °C 8.4 °C
Dew Point: 8.5 °C 2.4 °C 6.4 °C
Humidity: 98% 53% 88%
Wind Speed: 24.5km/h 0.0km/h 9.4km/h
Wind Gust: 36.7km/h - -
Wind- - SSW
Pressure: 1021.6 hPa 1018.5 hPa -
Precipitation: 16.8 mm    
Historical Graphs
 
 
Tabular Data for August 3, 2017
Time Temperature Dew Point Pressure Wind Wind Speed Wind Gust Humidity Rainfall Rate (Hourly) solar
00:04 7.8 °C 7.3 °C 1019.5 hPa North 5.0 km/h 8.7 km/h 97% 0.0 mm 0 W/m2
00:09 7.8 °C 7.3 °C 1019.5 hPa NNW 5.0 km/h 8.7 km/h 97% 0.0 mm 0 W/m2
00:14 7.8 °C 7.3 °C 1019.5 hPa NW 5.0 km/h 8.7 km/h 97% 0.0 mm 0 W/m2
00:19 7.8 °C 7.3 °C 1019.5 hPa NW 3.5 km/h 8.7 km/h 97% 0.0 mm 0 W/m2
00:24 7.7 °C 7.3 °C 1019.5 hPa NW 1.1 km/h 7.2 km/h 97% 0.0 mm 0 W/m2
00:29 7.7 °C 7.3 °C 1019.5 hPa NW 1.1 km/h 6.1 km/h 97% 0.0 mm 0 W/m2
00:34 7.7 °C 7.3 °C 1019.5 hPa ENE 3.5 km/h 6.1 km/h 97% 0.0 mm 0 W/m2
00:39 7.7 °C 7.3 °C 1019.2 hPa ENE 1.1 km/h 6.1 km/h 97% 0.0 mm 0 W/m2
00:44 7.7 °C 7.3 °C 1019.2 hPa NNE 1.1 km/h 5.0 km/h 97% 0.3 mm 0 W/m2
00:49 7.7 °C 7.3 °C 1019.2 hPa NNE 2.6 km/h 5.0 km/h 97% 0.3 mm 0 W/m2
00:54 7.6 °C 7.2 °C 1019.5 hPa Calm   6.1 km/h 97% 0.3 mm 0 W/m2
00:59 7.6 °C 7.2 °C 1019.2 hPa NW 5.0 km/h 6.1 km/h 97% 0.3 mm 0 W/m2
01:04 7.6 °C 7.2 °C 1019.2 hPa Calm   6.1 km/h 97% 0.3 mm 0 W/m2
01:09 7.6 °C 7.2 °C 1019.5 hPa NE 1.1 km/h 5.0 km/h 97% 0.3 mm 0 W/m2
01:14 7.6 °C 7.2 °C 1019.5 hPa NE 1.1 km/h 3.5 km/h 97% 0.3 mm 0 W/m2
01:20 7.6 °C 7.2 °C 1019.5 hPa East 1.1 km/h 3.5 km/h 97% 1.0 mm 0 W/m2
01:25 7.6 °C 7.2 °C 1019.2 hPa East 2.6 km/h 5.0 km/h 97% 1.3 mm 0 W/m2
01:30 7.5 °C 7.1 °C 1019.2 hPa NE 1.1 km/h 5.0 km/h 97% 1.3 mm 0 W/m2
01:35 7.5 °C 7.1 °C 1019.5 hPa North 3.5 km/h 5.0 km/h 97% 1.5 mm 0 W/m2
01:40 7.5 °C 7.1 °C 1019.5 hPa NNE 1.1 km/h 5.0 km/h 97% 1.3 mm 0 W/m2
01:45 7.4 °C 6.9 °C 1019.2 hPa North 5.0 km/h 6.1 km/h 97% 1.3 mm 0 W/m2
01:50 7.4 °C 6.9 °C 1019.2 hPa North 2.6 km/h 6.1 km/h 97% 1.3 mm 0 W/m2
01:55 7.4 °C 6.9 °C 1019.2 hPa NNW 3.5 km/h 6.1 km/h 97% 1.3 mm 0 W/m2
02:00 7.4 °C 6.9 °C 1019.2 hPa North 2.6 km/h 5.0 km/h 97% 1.3 mm 0 W/m2
02:05 7.4 °C 6.9 °C 1019.2 hPa NNE 3.5 km/h 6.1 km/h 97% 1.3 mm 0 W/m2
02:10 7.4 °C 6.9 °C 1019.2 hPa NNW 1.1 km/h 7.2 km/h 97% 1.3 mm 0 W/m2
02:15 7.7 °C 7.3 °C 1018.8 hPa West 6.1 km/h 13.4 km/h 97% 0.5 mm 0 W/m2
02:20 7.8 °C 7.3 °C 1018.8 hPa West 9.7 km/h 14.8 km/h 97% 0.5 mm 0 W/m2
02:25 7.9 °C 7.4 °C 1018.8 hPa WSW 8.7 km/h 17.2 km/h 97% 0.3 mm 0 W/m2
02:30 7.9 °C 7.4 °C 1018.8 hPa SW 6.1 km/h 17.2 km/h 97% 0.3 mm 0 W/m2
02:35 7.9 °C 7.4 °C 1018.8 hPa SW 8.7 km/h 13.4 km/h 97% 0.0 mm 0 W/m2
02:40 7.9 °C 7.4 °C 1018.8 hPa WSW 11.1 km/h 15.8 km/h 97% 0.0 mm 0 W/m2
02:45 7.9 °C 7.4 °C 1018.8 hPa WSW 5.0 km/h 15.8 km/h 97% 0.0 mm 0 W/m2
02:50 7.9 °C 7.4 °C 1018.8 hPa West 2.6 km/h 15.8 km/h 97% 0.0 mm 0 W/m2
02:55 7.8 °C 7.3 °C 1018.8 hPa WSW 8.7 km/h 11.1 km/h 97% 0.0 mm 0 W/m2
03:00 7.7 °C 7.3 °C 1018.8 hPa WSW 11.1 km/h 19.5 km/h 97% 0.0 mm 0 W/m2
03:05 7.6 °C 7.2 °C 1018.8 hPa WSW 9.7 km/h 19.5 km/h 97% 0.3 mm 0 W/m2
03:10 7.5 °C 7.1 °C 1018.5 hPa WSW 2.6 km/h 15.8 km/h 97% 0.3 mm 0 W/m2
03:15 7.5 °C 7.1 °C 1018.8 hPa WSW 3.5 km/h 13.4 km/h 97% 0.5 mm 0 W/m2
03:20 7.4 °C 6.9 °C 1018.5 hPa WSW 5.0 km/h 8.7 km/h 97% 1.0 mm 0 W/m2
03:25 7.3 °C 6.8 °C 1018.8 hPa WSW 3.5 km/h 7.2 km/h 97% 1.3 mm 0 W/m2
03:30 7.3 °C 6.8 °C 1018.5 hPa WSW 2.6 km/h 11.1 km/h 97% 1.5 mm 0 W/m2
03:36 7.2 °C 6.8 °C 1018.5 hPa West 1.1 km/h 11.1 km/h 97% 1.8 mm 0 W/m2
03:41 7.2 °C 6.8 °C 1018.5 hPa West 3.5 km/h 11.1 km/h 97% 1.8 mm 0 W/m2
03:46 7.2 °C 6.8 °C 1018.5 hPa West 1.1 km/h 7.2 km/h 97% 1.8 mm 0 W/m2
03:51 7.4 °C 6.9 °C 1018.5 hPa WSW 6.1 km/h 12.2 km/h 97% 1.8 mm 0 W/m2
03:56 7.5 °C 7.1 °C 1018.8 hPa SW 8.7 km/h 14.8 km/h 97% 1.8 mm 0 W/m2
04:01 7.6 °C 7.2 °C 1018.8 hPa SW 9.7 km/h 14.8 km/h 97% 1.8 mm 0 W/m2
04:06 7.6 °C 7.2 °C 1018.8 hPa WSW 6.1 km/h 14.8 km/h 97% 1.5 mm 0 W/m2
04:11 7.6 °C 7.2 °C 1018.5 hPa WSW 9.7 km/h 13.4 km/h 97% 1.3 mm 0 W/m2
04:16 7.5 °C 7.1 °C 1018.5 hPa WSW 9.7 km/h 15.8 km/h 97% 1.3 mm 0 W/m2
04:21 7.5 °C 7.1 °C 1018.5 hPa West 6.1 km/h 15.8 km/h 97% 0.5 mm 0 W/m2
04:26 7.5 °C 7.1 °C 1018.5 hPa West 8.7 km/h 14.8 km/h 97% 0.5 mm 0 W/m2
04:31 7.5 °C 7.1 °C 1018.5 hPa WSW 9.7 km/h 14.8 km/h 97% 0.3 mm 0 W/m2
04:36 7.4 °C 6.9 °C 1018.5 hPa WSW 6.1 km/h 14.8 km/h 97% 0.0 mm 0 W/m2
04:41 7.4 °C 6.9 °C 1018.5 hPa WSW 8.7 km/h 13.4 km/h 97% 0.0 mm 0 W/m2
04:46 7.4 °C 6.9 °C 1018.5 hPa WSW 7.2 km/h 11.1 km/h 97% 0.0 mm 0 W/m2
05:06 7.1 °C 6.7 °C 1018.5 hPa WSW 3.5 km/h 11.1 km/h 97% 1.0 mm 0 W/m2
05:11 7.0 °C 6.6 °C 1018.8 hPa WSW 7.2 km/h 11.1 km/h 97% 1.0 mm 0 W/m2
05:16 7.0 °C 6.6 °C 1018.8 hPa WSW 6.1 km/h 11.1 km/h 97% 1.3 mm 0 W/m2
05:21 7.0 °C 6.6 °C 1018.5 hPa WSW 6.1 km/h 11.1 km/h 97% 1.3 mm 0 W/m2
05:26 6.9 °C 6.6 °C 1018.8 hPa WSW 2.6 km/h 9.7 km/h 98% 1.3 mm 0 W/m2
05:31 6.9 °C 6.6 °C 1018.8 hPa WSW 5.0 km/h 13.4 km/h 98% 1.3 mm 0 W/m2
05:36 6.8 °C 6.5 °C 1018.8 hPa WSW 8.7 km/h 13.4 km/h 98% 1.3 mm 0 W/m2
05:41 6.8 °C 6.5 °C 1018.8 hPa West 6.1 km/h 13.4 km/h 98% 1.3 mm 0 W/m2
05:46 6.7 °C 6.4 °C 1018.5 hPa West 3.5 km/h 13.4 km/h 98% 1.5 mm 0 W/m2
05:51 6.7 °C 6.4 °C 1018.8 hPa WSW 5.0 km/h 13.4 km/h 98% 1.3 mm 0 W/m2
05:56 6.8 °C 6.5 °C 1018.8 hPa West 9.7 km/h 20.9 km/h 98% 1.0 mm 0 W/m2
06:01 6.8 °C 6.5 °C 1018.8 hPa WSW 8.7 km/h 20.9 km/h 98% 0.5 mm 0 W/m2
06:06 7.0 °C 6.6 °C 1018.8 hPa WSW 7.2 km/h 20.9 km/h 97% 0.5 mm 0 W/m2
06:11 7.0 °C 6.6 °C 1018.8 hPa WSW 8.7 km/h 20.9 km/h 97% 0.3 mm 0 W/m2
06:16 7.0 °C 6.6 °C 1018.8 hPa West 8.7 km/h 18.3 km/h 97% 0.3 mm 0 W/m2
06:21 7.0 °C 6.6 °C 1019.2 hPa West 8.7 km/h 14.8 km/h 97% 0.3 mm 0 W/m2
06:26 7.0 °C 6.6 °C 1019.2 hPa WSW 6.1 km/h 14.8 km/h 97% 0.3 mm 0 W/m2
06:31 7.1 °C 6.7 °C 1019.2 hPa WSW 8.7 km/h 15.8 km/h 97% 0.5 mm 0 W/m2
06:36 7.2 °C 6.8 °C 1019.2 hPa WSW 5.0 km/h 15.8 km/h 97% 0.5 mm 0 W/m2
06:41 7.2 °C 6.8 °C 1019.2 hPa WSW 5.0 km/h 15.8 km/h 97% 0.3 mm 0 W/m2
06:46 7.4 °C 6.9 °C 1019.2 hPa WSW 7.2 km/h 19.5 km/h 97% 0.3 mm 0 W/m2
06:51 7.5 °C 7.1 °C 1019.2 hPa SW 8.7 km/h 19.5 km/h 97% 0.3 mm 0 W/m2
07:01 7.7 °C 7.1 °C 1019.2 hPa WSW 8.7 km/h 21.9 km/h 96% 0.5 mm 0 W/m2
07:06 7.7 °C 6.9 °C 1019.5 hPa WSW 9.7 km/h 21.9 km/h 95% 0.5 mm 0 W/m2
07:11 7.7 °C 6.9 °C 1019.5 hPa WSW 11.1 km/h 19.5 km/h 95% 0.5 mm 0 W/m2
07:16 7.6 °C 6.8 °C 1019.5 hPa West 13.4 km/h 19.5 km/h 95% 0.5 mm 0 W/m2
07:21 7.5 °C 6.6 °C 1019.5 hPa WSW 8.7 km/h 19.5 km/h 94% 0.5 mm 0 W/m2
07:26 7.5 °C 6.6 °C 1019.5 hPa WSW 8.7 km/h 19.5 km/h 94% 0.5 mm 0 W/m2
07:31 7.5 °C 6.8 °C 1019.5 hPa WSW 11.1 km/h 19.5 km/h 95% 0.3 mm 3 W/m2
07:36 7.6 °C 6.7 °C 1019.9 hPa SW 12.2 km/h 21.9 km/h 94% 0.3 mm 3 W/m2
07:41 7.5 °C 6.6 °C 1019.9 hPa SW 14.8 km/h 21.9 km/h 94% 0.5 mm 6 W/m2
07:46 7.5 °C 6.6 °C 1019.9 hPa SW 8.7 km/h 20.9 km/h 94% 0.5 mm 10 W/m2
07:56 7.4 °C 6.7 °C 1019.9 hPa WSW 5.0 km/h 19.5 km/h 95% 0.5 mm 8 W/m2
08:01 7.4 °C 6.7 °C 1019.5 hPa West 9.7 km/h 17.2 km/h 95% 0.5 mm 7 W/m2
08:06 7.5 °C 6.8 °C 1019.5 hPa West 13.4 km/h 19.5 km/h 95% 0.5 mm 19 W/m2
08:11 7.5 °C 6.8 °C 1019.5 hPa WSW 11.1 km/h 20.9 km/h 95% 1.0 mm 23 W/m2
08:16 7.5 °C 6.8 °C 1019.5 hPa WSW 11.1 km/h 20.9 km/h 95% 1.3 mm 17 W/m2
08:21 7.5 °C 6.9 °C 1019.5 hPa WSW 6.1 km/h 18.3 km/h 96% 1.5 mm 16 W/m2
08:26 7.4 °C 6.8 °C 1019.5 hPa West 5.0 km/h 18.3 km/h 96% 1.5 mm 20 W/m2
08:31 7.4 °C 6.8 °C 1019.5 hPa West 6.1 km/h 13.4 km/h 96% 1.5 mm 22 W/m2
08:36 7.5 °C 6.9 °C 1019.5 hPa WNW 5.0 km/h 19.5 km/h 96% 1.5 mm 22 W/m2
08:41 7.5 °C 6.9 °C 1019.5 hPa West 3.5 km/h 19.5 km/h 96% 1.3 mm 13 W/m2
08:46 7.6 °C 7.0 °C 1019.5 hPa WSW 5.0 km/h 9.7 km/h 96% 1.3 mm 18 W/m2
08:51 7.7 °C 7.1 °C 1019.5 hPa WSW 13.4 km/h 19.5 km/h 96% 1.3 mm 25 W/m2
08:56 7.8 °C 7.2 °C 1019.5 hPa SW 15.8 km/h 24.5 km/h 96% 1.3 mm 33 W/m2
09:01 7.8 °C 7.1 °C 1019.5 hPa WSW 18.3 km/h 27.0 km/h 95% 1.0 mm 41 W/m2
09:06 7.8 °C 7.1 °C 1019.5 hPa WSW 15.8 km/h 27.0 km/h 95% 1.0 mm 51 W/m2
09:11 7.8 °C 7.1 °C 1019.5 hPa WSW 11.1 km/h 27.0 km/h 95% 0.5 mm 49 W/m2
09:16 7.7 °C 7.1 °C 1019.9 hPa WSW 15.8 km/h 23.3 km/h 96% 0.3 mm 63 W/m2
09:21 7.7 °C 7.1 °C 1019.5 hPa WSW 17.2 km/h 25.6 km/h 96% 0.0 mm 46 W/m2
09:26 7.8 °C 7.1 °C 1019.9 hPa WSW 9.7 km/h 25.6 km/h 95% 0.0 mm 49 W/m2
09:31 7.9 °C 7.2 °C 1019.9 hPa SW 13.4 km/h 27.0 km/h 95% 0.0 mm 58 W/m2
09:36 7.9 °C 7.2 °C 1019.9 hPa SW 13.4 km/h 28.0 km/h 95% 0.3 mm 65 W/m2
09:41 8.0 °C 7.2 °C 1020.2 hPa SW 12.2 km/h 28.0 km/h 95% 0.3 mm 61 W/m2
09:46 8.0 °C 7.2 °C 1019.9 hPa SW 13.4 km/h 25.6 km/h 95% 0.5 mm 63 W/m2
09:51 8.0 °C 7.2 °C 1019.9 hPa SW 12.2 km/h 24.5 km/h 95% 0.5 mm 84 W/m2
09:56 8.1 °C 7.3 °C 1019.9 hPa SW 7.2 km/h 23.3 km/h 95% 1.0 mm 84 W/m2
10:01 8.2 °C 7.4 °C 1019.9 hPa SW 15.8 km/h 23.3 km/h 95% 1.0 mm 87 W/m2
10:06 8.2 °C 7.6 °C 1019.9 hPa SW 14.8 km/h 21.9 km/h 96% 1.0 mm 92 W/m2
10:11 8.4 °C 7.8 °C 1019.9 hPa West 9.7 km/h 21.9 km/h 96% 1.0 mm 100 W/m2
10:16 8.4 °C 7.7 °C 1019.9 hPa SW 15.8 km/h 29.4 km/h 95% 1.0 mm 113 W/m2
10:21 8.6 °C 7.8 °C 1019.9 hPa SW 15.8 km/h 29.4 km/h 95% 1.0 mm 120 W/m2
10:26 8.6 °C 7.8 °C 1019.9 hPa SW 18.3 km/h 21.9 km/h 95% 1.0 mm 130 W/m2
10:31 8.8 °C 8.1 °C 1020.2 hPa SW 14.8 km/h 23.3 km/h 95% 1.0 mm 147 W/m2
10:36 8.9 °C 8.2 °C 1020.2 hPa WSW 12.2 km/h 23.3 km/h 95% 0.5 mm 225 W/m2
10:41 9.4 °C 8.5 °C 1020.2 hPa SW 8.7 km/h 23.3 km/h 94% 0.5 mm 220 W/m2
10:46 9.3 °C 8.2 °C 1020.5 hPa SW 18.3 km/h 23.3 km/h 93% 0.5 mm 88 W/m2
10:51 8.7 °C 7.8 °C 1020.5 hPa SW 9.7 km/h 23.3 km/h 94% 1.5 mm 100 W/m2
10:56 8.4 °C 7.7 °C 1020.5 hPa SW 8.7 km/h 21.9 km/h 95% 1.8 mm 61 W/m2
11:01 8.3 °C 7.6 °C 1020.2 hPa SW 14.8 km/h 23.3 km/h 95% 1.8 mm 69 W/m2
11:06 8.4 °C 7.8 °C 1020.5 hPa SW 13.4 km/h 25.6 km/h 96% 2.0 mm 83 W/m2
11:11 8.3 °C 7.7 °C 1020.5 hPa SW 20.9 km/h 27.0 km/h 96% 2.0 mm 91 W/m2
11:16 8.4 °C 7.8 °C 1020.2 hPa SW 14.8 km/h 27.0 km/h 96% 2.0 mm 119 W/m2
11:21 8.6 °C 7.8 °C 1020.2 hPa SW 12.2 km/h 30.6 km/h 95% 2.0 mm 156 W/m2
11:26 8.9 °C 8.2 °C 1020.2 hPa SW 19.5 km/h 30.6 km/h 95% 2.0 mm 164 W/m2
11:31 9.0 °C 7.9 °C 1020.2 hPa SW 9.7 km/h 25.6 km/h 93% 2.0 mm 116 W/m2
11:36 8.9 °C 7.8 °C 1020.2 hPa SW 18.3 km/h 25.6 km/h 93% 2.0 mm 138 W/m2
11:41 9.1 °C 7.7 °C 1019.9 hPa SSW 12.2 km/h 24.5 km/h 91% 2.0 mm 193 W/m2
11:46 9.3 °C 7.6 °C 1020.2 hPa South 11.1 km/h 24.5 km/h 89% 1.8 mm 88 W/m2
11:51 9.1 °C 7.4 °C 1019.9 hPa SSW 14.8 km/h 23.3 km/h 89% 1.3 mm 90 W/m2
11:56 8.6 °C 6.9 °C 1019.9 hPa SSW 12.2 km/h 21.9 km/h 89% 1.5 mm 84 W/m2
12:01 8.4 °C 6.8 °C 1019.9 hPa SSW 6.1 km/h 20.9 km/h 90% 1.5 mm 101 W/m2
12:06 8.6 °C 7.1 °C 1019.9 hPa South 12.2 km/h 20.9 km/h 90% 1.5 mm 84 W/m2
12:11 8.6 °C 7.1 °C 1019.9 hPa South 9.7 km/h 18.3 km/h 90% 1.8 mm 71 W/m2
12:16 8.4 °C 6.7 °C 1019.9 hPa South 6.1 km/h 18.3 km/h 89% 1.8 mm 80 W/m2
12:21 8.8 °C 7.1 °C 1019.5 hPa SSW 19.5 km/h 24.5 km/h 89% 2.0 mm 88 W/m2
12:26 9.1 °C 6.9 °C 1019.5 hPa SW 9.7 km/h 28.0 km/h 86% 2.0 mm 98 W/m2
12:31 9.3 °C 6.7 °C 1019.5 hPa SW 19.5 km/h 28.0 km/h 84% 2.0 mm 125 W/m2
12:36 9.6 °C 7.1 °C 1019.5 hPa SW 9.7 km/h 24.5 km/h 84% 2.0 mm 137 W/m2
12:41 9.6 °C 5.9 °C 1019.5 hPa SSW 12.2 km/h 27.0 km/h 78% 2.0 mm 123 W/m2
12:46 9.7 °C 5.5 °C 1019.2 hPa SSW 11.1 km/h 27.0 km/h 75% 2.0 mm 115 W/m2
13:07 10.1 °C 3.6 °C 1019.2 hPa South 15.8 km/h 25.6 km/h 64% 0.5 mm 151 W/m2
13:12 10.2 °C 3.5 °C 1019.2 hPa South 17.2 km/h 27.0 km/h 63% 0.3 mm 156 W/m2
13:17 10.3 °C 3.3 °C 1019.2 hPa South 15.8 km/h 27.0 km/h 62% 0.3 mm 150 W/m2
13:22 10.3 °C 3.3 °C 1019.2 hPa South 18.3 km/h 29.4 km/h 62% 0.0 mm 138 W/m2
13:27 10.3 °C 3.6 °C 1018.8 hPa South 19.5 km/h 29.4 km/h 63% 0.0 mm 124 W/m2
13:32 10.3 °C 3.6 °C 1018.8 hPa South 9.7 km/h 29.4 km/h 63% 0.0 mm 115 W/m2
13:37 10.5 °C 3.8 °C 1018.8 hPa South 11.1 km/h 23.3 km/h 63% 0.0 mm 174 W/m2
13:42 11.2 °C 3.7 °C 1019.2 hPa South 14.8 km/h 23.3 km/h 60% 0.0 mm 117 W/m2
13:47 10.7 °C 3.5 °C 1018.8 hPa South 11.1 km/h 23.3 km/h 61% 0.0 mm 113 W/m2
13:52 10.5 °C 3.3 °C 1018.8 hPa South 12.2 km/h 23.3 km/h 61% 0.0 mm 109 W/m2
13:57 10.5 °C 3.8 °C 1019.2 hPa South 11.1 km/h 20.9 km/h 63% 0.0 mm 85 W/m2
14:02 10.6 °C 3.4 °C 1019.2 hPa South 17.2 km/h 23.3 km/h 61% 0.0 mm 102 W/m2
14:07 11.6 °C 3.9 °C 1018.8 hPa SSW 11.1 km/h 23.3 km/h 59% 0.0 mm 85 W/m2
14:12 12.2 °C 3.4 °C 1018.8 hPa South 8.7 km/h 20.9 km/h 55% 0.0 mm 87 W/m2
14:17 11.9 °C 2.6 °C 1019.2 hPa SSW 13.4 km/h 23.3 km/h 53% 0.0 mm 110 W/m2
14:22 11.4 °C 2.4 °C 1019.2 hPa SSW 11.1 km/h 23.3 km/h 54% 0.0 mm 107 W/m2
14:27 11.2 °C 3.2 °C 1019.2 hPa South 11.1 km/h 19.5 km/h 58% 0.0 mm 149 W/m2
14:32 11.1 °C 3.2 °C 1018.8 hPa South 12.2 km/h 17.2 km/h 58% 0.0 mm 123 W/m2
14:37 10.9 °C 3.4 °C 1018.8 hPa SSW 13.4 km/h 24.5 km/h 60% 0.0 mm 85 W/m2
14:43 11.0 °C 4.0 °C 1019.2 hPa SSW 13.4 km/h 24.5 km/h 62% 0.0 mm 99 W/m2
14:48 11.3 °C 4.5 °C 1019.2 hPa SSW 14.8 km/h 23.3 km/h 63% 0.0 mm 91 W/m2
14:53 11.4 °C 4.8 °C 1019.2 hPa SSW 14.8 km/h 24.5 km/h 64% 0.0 mm 81 W/m2
14:58 11.3 °C 4.7 °C 1018.8 hPa South 13.4 km/h 24.5 km/h 64% 0.0 mm 157 W/m2
15:03 11.3 °C 4.9 °C 1019.2 hPa South 14.8 km/h 23.3 km/h 65% 0.0 mm 117 W/m2
15:08 10.7 °C 5.9 °C 1019.2 hPa SSW 19.5 km/h 27.0 km/h 72% 0.0 mm 107 W/m2
15:17 10.3 °C 5.7 °C 1019.2 hPa SSW 14.8 km/h 27.0 km/h 73% 0.0 mm 78 W/m2
15:22 10.2 °C 5.2 °C 1019.2 hPa South 15.8 km/h 24.5 km/h 71% 0.0 mm 62 W/m2
15:27 10.1 °C 4.9 °C 1019.2 hPa South 15.8 km/h 23.3 km/h 70% 0.0 mm 140 W/m2
15:29 10.4 °C 4.9 °C 1019.2 hPa South 13.4 km/h 23.3 km/h 69% 0.0 mm 130 W/m2
15:34 11.0 °C 5.1 °C 1019.2 hPa South 11.1 km/h 21.9 km/h 67% 0.0 mm 128 W/m2
15:36 11.1 °C 5.2 °C 1019.2 hPa South 13.4 km/h 21.9 km/h 67% 0.0 mm 132 W/m2
15:38 11.2 °C 5.5 °C 1019.5 hPa South 13.4 km/h 24.5 km/h 68% 0.0 mm 108 W/m2
15:43 10.6 °C 5.8 °C 1019.2 hPa SSW 14.8 km/h 27.0 km/h 72% 0.0 mm 78 W/m2
15:48 10.2 °C 5.6 °C 1019.5 hPa SSW 9.7 km/h 27.0 km/h 73% 0.0 mm 68 W/m2
15:53 10.0 °C 5.4 °C 1019.2 hPa SSW 24.5 km/h 30.6 km/h 73% 0.0 mm 48 W/m2
15:58 9.2 °C 6.1 °C 1019.5 hPa SSW 13.4 km/h 30.6 km/h 81% 0.0 mm 42 W/m2
16:16 8.5 °C 6.8 °C 1019.5 hPa SSW 13.4 km/h 25.6 km/h 89% 0.0 mm 41 W/m2
16:21 8.5 °C 6.6 °C 1019.5 hPa SSW 9.7 km/h 19.5 km/h 88% 0.0 mm 39 W/m2
16:26 8.6 °C 6.7 °C 1019.5 hPa SW 15.8 km/h 19.5 km/h 88% 0.0 mm 19 W/m2
16:27 8.6 °C 6.7 °C 1019.5 hPa SW 11.1 km/h 19.5 km/h 88% 0.0 mm 17 W/m2
16:32 8.5 °C 6.8 °C 1019.2 hPa SSW 7.2 km/h 23.3 km/h 89% 0.0 mm 26 W/m2
16:37 8.5 °C 6.9 °C 1019.5 hPa SSW 11.1 km/h 23.3 km/h 90% 0.3 mm 26 W/m2
16:42 8.6 °C 6.9 °C 1019.5 hPa SSW 15.8 km/h 19.5 km/h 89% 0.3 mm 21 W/m2
16:47 8.6 °C 6.9 °C 1019.5 hPa SW 14.8 km/h 23.3 km/h 89% 0.3 mm 16 W/m2
16:52 8.5 °C 6.8 °C 1019.5 hPa SW 15.8 km/h 27.0 km/h 89% 0.3 mm 9 W/m2
16:57 8.5 °C 7.1 °C 1019.5 hPa SSW 14.8 km/h 27.0 km/h 91% 0.3 mm 6 W/m2
17:02 8.5 °C 7.3 °C 1019.9 hPa SSW 13.4 km/h 23.3 km/h 92% 0.3 mm 3 W/m2
17:07 8.4 °C 7.2 °C 1019.5 hPa SSW 14.8 km/h 21.9 km/h 92% 0.3 mm 3 W/m2
17:12 8.3 °C 6.8 °C 1019.9 hPa SW 7.2 km/h 20.9 km/h 90% 0.3 mm 0 W/m2
17:17 8.4 °C 7.0 °C 1019.9 hPa SSW 11.1 km/h 19.5 km/h 91% 1.3 mm 0 W/m2
17:22 8.3 °C 7.1 °C 1019.9 hPa South 5.0 km/h 15.8 km/h 92% 1.8 mm 0 W/m2
17:27 8.2 °C 7.1 °C 1019.9 hPa SSW 6.1 km/h 15.8 km/h 93% 1.8 mm 0 W/m2
17:32 8.2 °C 7.4 °C 1019.9 hPa SSW 11.1 km/h 24.5 km/h 95% 1.8 mm 0 W/m2
17:37 8.1 °C 7.3 °C 1019.9 hPa SW 15.8 km/h 24.5 km/h 95% 1.8 mm 0 W/m2
17:42 8.0 °C 7.2 °C 1019.9 hPa SSW 12.2 km/h 24.5 km/h 95% 2.3 mm 0 W/m2
17:47 8.1 °C 7.5 °C 1019.9 hPa SSW 14.8 km/h 24.5 km/h 96% 3.0 mm 0 W/m2
17:52 8.0 °C 7.4 °C 1019.9 hPa South 5.0 km/h 19.5 km/h 96% 3.0 mm 0 W/m2
17:57 7.9 °C 7.3 °C 1019.9 hPa South 5.0 km/h 17.2 km/h 96% 3.0 mm 0 W/m2
18:02 7.9 °C 7.3 °C 1019.9 hPa South 2.6 km/h 11.1 km/h 96% 3.0 mm 0 W/m2
18:07 8.0 °C 7.4 °C 1020.2 hPa SSW 8.7 km/h 13.4 km/h 96% 3.0 mm 0 W/m2
18:12 8.3 °C 7.7 °C 1020.2 hPa SSW 6.1 km/h 13.4 km/h 96% 3.0 mm 0 W/m2
18:17 8.3 °C 7.7 °C 1020.5 hPa SSE 2.6 km/h 13.4 km/h 96% 2.0 mm 0 W/m2
18:22 8.3 °C 7.6 °C 1020.5 hPa SSE 7.2 km/h 12.2 km/h 95% 1.8 mm 0 W/m2
18:27 8.2 °C 7.4 °C 1020.5 hPa SSW 12.2 km/h 36.7 km/h 95% 2.3 mm 0 W/m2
18:32 8.0 °C 6.9 °C 1020.9 hPa South 8.7 km/h 36.7 km/h 93% 2.3 mm 0 W/m2
18:37 8.0 °C 6.9 °C 1020.9 hPa South 7.2 km/h 17.2 km/h 93% 2.3 mm 0 W/m2
18:42 8.1 °C 7.1 °C 1020.9 hPa South 5.0 km/h 15.8 km/h 93% 1.8 mm 0 W/m2
18:47 8.2 °C 7.1 °C 1020.5 hPa SW 7.2 km/h 12.2 km/h 93% 1.3 mm 0 W/m2
18:52 8.4 °C 7.0 °C 1020.5 hPa SSW 8.7 km/h 20.9 km/h 91% 1.3 mm 0 W/m2
18:57 8.6 °C 6.6 °C 1020.9 hPa South 7.2 km/h 20.9 km/h 87% 1.3 mm 0 W/m2
19:02 8.8 °C 6.4 °C 1020.9 hPa South 9.7 km/h 17.2 km/h 85% 1.3 mm 0 W/m2
19:07 8.9 °C 6.3 °C 1020.9 hPa South 6.1 km/h 17.2 km/h 84% 1.3 mm 0 W/m2
19:12 9.0 °C 6.1 °C 1020.9 hPa South 7.2 km/h 14.8 km/h 82% 1.0 mm 0 W/m2
19:17 9.1 °C 6.2 °C 1020.9 hPa South 8.7 km/h 14.8 km/h 82% 1.0 mm 0 W/m2
19:22 9.2 °C 6.1 °C 1020.9 hPa South 14.8 km/h 19.5 km/h 81% 1.0 mm 0 W/m2
19:27 9.2 °C 5.9 °C 1020.9 hPa South 12.2 km/h 25.6 km/h 80% 0.3 mm 0 W/m2
19:32 8.8 °C 5.9 °C 1020.5 hPa South 7.2 km/h 25.6 km/h 82% 0.3 mm 0 W/m2
19:37 8.7 °C 5.8 °C 1020.9 hPa SSE 8.7 km/h 18.3 km/h 82% 0.0 mm 0 W/m2
19:42 9.1 °C 5.8 °C 1020.9 hPa South 14.8 km/h 20.9 km/h 80% 0.0 mm 0 W/m2
19:47 9.3 °C 5.3 °C 1020.9 hPa South 11.1 km/h 20.9 km/h 76% 0.0 mm 0 W/m2
19:52 9.3 °C 5.3 °C 1020.9 hPa South 9.7 km/h 19.5 km/h 76% 0.0 mm 0 W/m2
19:57 9.2 °C 5.2 °C 1020.9 hPa South 9.7 km/h 18.3 km/h 76% 0.0 mm 0 W/m2
20:02 9.2 °C 4.8 °C 1020.9 hPa South 12.2 km/h 19.5 km/h 74% 0.0 mm 0 W/m2
20:07 9.3 °C 4.9 °C 1020.9 hPa SSE 9.7 km/h 19.5 km/h 74% 0.0 mm 0 W/m2
20:12 9.2 °C 5.4 °C 1020.9 hPa SSE 9.7 km/h 21.9 km/h 77% 0.0 mm 0 W/m2
20:17 9.1 °C 5.8 °C 1020.9 hPa South 13.4 km/h 27.0 km/h 80% 0.0 mm 0 W/m2
20:22 9.0 °C 6.1 °C 1021.2 hPa South 13.4 km/h 27.0 km/h 82% 0.0 mm 0 W/m2
20:27 8.8 °C 6.2 °C 1020.9 hPa South 9.7 km/h 24.5 km/h 84% 0.0 mm 0 W/m2
20:32 8.7 °C 6.2 °C 1020.9 hPa SSE 7.2 km/h 19.5 km/h 84% 0.0 mm 0 W/m2
20:37 8.9 °C 6.2 °C 1020.9 hPa South 7.2 km/h 15.8 km/h 83% 0.0 mm 0 W/m2
20:42 9.0 °C 5.7 °C 1020.9 hPa South 14.8 km/h 21.9 km/h 80% 0.0 mm 0 W/m2
20:47 9.1 °C 6.2 °C 1021.2 hPa SSE 12.2 km/h 21.9 km/h 82% 0.0 mm 0 W/m2
20:52 8.7 °C 6.5 °C 1020.9 hPa SE 7.2 km/h 20.9 km/h 86% 0.0 mm 0 W/m2
20:57 8.4 °C 6.4 °C 1020.9 hPa SE 5.0 km/h 18.3 km/h 87% 0.0 mm 0 W/m2
21:02 8.4 °C 6.4 °C 1021.2 hPa SE 7.2 km/h 15.8 km/h 87% 0.0 mm 0 W/m2
21:07 8.6 °C 6.4 °C 1021.2 hPa SSE 12.2 km/h 21.9 km/h 86% 0.0 mm 0 W/m2
21:12 8.9 °C 6.0 °C 1021.2 hPa South 15.8 km/h 28.0 km/h 82% 0.0 mm 0 W/m2
21:15 9.0 °C 5.9 °C 1021.2 hPa SSW 15.8 km/h 28.0 km/h 81% 0.0 mm 0 W/m2
21:20 8.9 °C 6.2 °C 1021.2 hPa South 9.7 km/h 28.0 km/h 83% 0.0 mm 0 W/m2
21:25 8.8 °C 5.9 °C 1020.9 hPa South 9.7 km/h 25.6 km/h 82% 0.0 mm 0 W/m2
21:30 8.7 °C 6.2 °C 1021.2 hPa South 13.4 km/h 21.9 km/h 84% 0.0 mm 0 W/m2
21:33 8.6 °C 6.1 °C 1021.2 hPa South 13.4 km/h 23.3 km/h 84% 0.3 mm 0 W/m2
21:38 8.4 °C 6.0 °C 1021.2 hPa SSW 8.7 km/h 23.3 km/h 85% 0.3 mm 0 W/m2
21:43 8.3 °C 5.9 °C 1021.2 hPa SSW 3.5 km/h 20.9 km/h 85% 0.3 mm 0 W/m2
21:48 8.2 °C 5.8 °C 1021.2 hPa SSW 3.5 km/h 13.4 km/h 85% 0.3 mm 0 W/m2
21:53 8.2 °C 5.7 °C 1020.9 hPa SSW 5.0 km/h 11.1 km/h 84% 0.3 mm 0 W/m2
21:58 8.3 °C 5.4 °C 1021.2 hPa SW 2.6 km/h 11.1 km/h 82% 0.3 mm 0 W/m2
22:03 8.3 °C 5.4 °C 1021.2 hPa WSW 1.1 km/h 9.7 km/h 82% 0.3 mm 0 W/m2
22:08 8.0 °C 5.1 °C 1021.2 hPa West 1.1 km/h 6.1 km/h 82% 0.3 mm 0 W/m2
22:13 7.9 °C 5.2 °C 1021.2 hPa SW 12.2 km/h 15.8 km/h 83% 0.3 mm 0 W/m2
22:18 8.6 °C 5.7 °C 1021.2 hPa South 8.7 km/h 23.3 km/h 82% 0.3 mm 0 W/m2
22:23 8.6 °C 5.7 °C 1021.6 hPa SSW 6.1 km/h 23.3 km/h 82% 0.3 mm 0 W/m2
22:28 8.3 °C 5.9 °C 1021.2 hPa SW 6.1 km/h 18.3 km/h 85% 0.3 mm 0 W/m2
22:33 8.1 °C 5.9 °C 1021.2 hPa WSW 3.5 km/h 11.1 km/h 86% 0.0 mm 0 W/m2
22:38 7.9 °C 5.7 °C 1021.2 hPa WNW 5.0 km/h 8.7 km/h 86% 0.0 mm 0 W/m2
22:43 7.8 °C 5.8 °C 1021.2 hPa WNW 5.0 km/h 8.7 km/h 87% 0.0 mm 0 W/m2
22:48 7.8 °C 5.9 °C 1021.2 hPa Calm   8.7 km/h 88% 0.0 mm 0 W/m2
22:53 7.8 °C 5.9 °C 1021.2 hPa Calm   7.2 km/h 88% 0.0 mm 0 W/m2
22:58 7.7 °C 6.0 °C 1021.2 hPa WNW 6.1 km/h 7.2 km/h 89% 0.0 mm 0 W/m2
23:03 7.7 °C 6.0 °C 1021.6 hPa Calm   7.2 km/h 89% 0.0 mm 0 W/m2
23:08 8.2 °C 6.0 °C 1021.6 hPa SSW 11.1 km/h 14.8 km/h 86% 0.0 mm 0 W/m2
23:13 8.9 °C 5.4 °C 1021.2 hPa SSW 9.7 km/h 21.9 km/h 79% 0.0 mm 0 W/m2
23:18 9.0 °C 4.6 °C 1021.2 hPa SSW 6.1 km/h 23.3 km/h 74% 0.0 mm 0 W/m2
23:23 8.9 °C 4.7 °C 1021.2 hPa SSW 12.2 km/h 23.3 km/h 75% 0.0 mm 0 W/m2
23:28 9.2 °C 4.6 °C 1021.6 hPa SSW 9.7 km/h 23.3 km/h 73% 0.0 mm 0 W/m2
23:33 9.0 °C 5.2 °C 1021.6 hPa SW 12.2 km/h 24.5 km/h 77% 0.0 mm 0 W/m2
23:38 8.8 °C 6.1 °C 1021.6 hPa SW 11.1 km/h 24.5 km/h 83% 0.0 mm 0 W/m2
23:43 8.6 °C 6.2 °C 1021.6 hPa SW 11.1 km/h 24.5 km/h 85% 0.0 mm 0 W/m2
23:47 8.4 °C 6.2 °C 1021.6 hPa SW 11.1 km/h 24.5 km/h 86% 0.0 mm 0 W/m2
23:52 8.3 °C 6.4 °C 1021.6 hPa SW 14.8 km/h 25.6 km/h 88% 0.0 mm 0 W/m2
23:57 8.2 °C 6.3 °C 1021.6 hPa WSW 8.7 km/h 25.6 km/h 88% 0.0 mm 0 W/m2
Northern Hawkes Bay. New Zealand Historic Data
Compliments of Weather Underground - 2 mb